CYXY

Whitehorse/Erik Nielsen International Airport

Airport
ICAO code
CYXY
IATA Code
YXY
Summary
ICAO Region
NAM
ICAO Territory
Location

Whitehorse, Yukon,

Serving
Whitehorse
Elevation
2317 ft
Coordinates
60° 42' 46" N , 135° 4' 11" W
KCC
Metar
Observation
CYXY 280400Z 34006KT 4SM -SN OVC028 M12/M14 A3022 RMK SN3SC5 SLP293
Station
Whitehorse, Y. T.
Date/Time
2022-11-28 04:00:00
Wind direction
340°
Wind speed
06 kts
Lowest cloud amount
overcast
Temperature
-12°C
Dew point
-14°C
Humidity
84%
Weather condition
light snow

Description

Erik Nielsen Whitehorse International Airport is located in Whitehorse, Yukon, Canada.

Climatology

Tundra climate (Köppen climate classification ET) - warmest month has an average temperature of 0 - 10 degrees C.

Runways

Designator Length Width Surface Rops
1/19 632 23 ASP Yes/Yes
13L/31R 1219 24 ASP Yes/Yes
13R/31L 2895 46 ASP Yes/Yes

Airport map

Aerial View

SKYbrary Partners:

Safety knowledge contributed by: